sensor_id;sensor_type;location;lat;lon;timestamp;temperature;humidity
5246;DHT22;54412;51.206;6.888;2022-10-04T00:01:54;12.50;99.90
5246;DHT22;54412;51.206;6.888;2022-10-04T00:04:28;12.50;99.90
5246;DHT22;54412;51.206;6.888;2022-10-04T00:07:00;12.40;99.90
5246;DHT22;54412;51.206;6.888;2022-10-04T00:09:35;12.50;99.90
5246;DHT22;54412;51.206;6.888;2022-10-04T00:12:36;12.40;99.90
5246;DHT22;54412;51.206;6.888;2022-10-04T00:15:15;12.50;99.90
5246;DHT22;54412;51.206;6.888;2022-10-04T00:26:00;12.60;99.90
5246;DHT22;54412;51.206;6.888;2022-10-04T00:28:29;12.60;99.90
5246;DHT22;54412;51.206;6.888;2022-10-04T00:33:50;12.60;99.90
5246;DHT22;54412;51.206;6.888;2022-10-04T00:44:18;12.50;99.90
5246;DHT22;54412;51.206;6.888;2022-10-04T00:46:47;12.40;99.90
5246;DHT22;54412;51.206;6.888;2022-10-04T00:49:17;12.50;99.90
5246;DHT22;54412;51.206;6.888;2022-10-04T00:52:04;12.50;99.90
5246;DHT22;54412;51.206;6.888;2022-10-04T00:54:41;12.60;99.90
5246;DHT22;54412;51.206;6.888;2022-10-04T00:57:16;12.60;99.90
5246;DHT22;54412;51.206;6.888;2022-10-04T01:00:03;12.60;99.90
5246;DHT22;54412;51.206;6.888;2022-10-04T01:05:28;12.60;99.90
5246;DHT22;54412;51.206;6.888;2022-10-04T01:08:09;12.40;99.90
5246;DHT22;54412;51.206;6.888;2022-10-04T01:10:57;12.50;99.90
5246;DHT22;54412;51.206;6.888;2022-10-04T01:13:30;12.60;99.90
5246;DHT22;54412;51.206;6.888;2022-10-04T01:16:03;12.50;99.90
5246;DHT22;54412;51.206;6.888;2022-10-04T01:18:34;12.50;99.90
5246;DHT22;54412;51.206;6.888;2022-10-04T01:21:04;12.40;99.90
5246;DHT22;54412;51.206;6.888;2022-10-04T01:31:55;12.40;99.90
5246;DHT22;54412;51.206;6.888;2022-10-04T01:34:25;12.40;99.90
5246;DHT22;54412;51.206;6.888;2022-10-04T01:36:58;12.40;99.90
5246;DHT22;54412;51.206;6.888;2022-10-04T01:39:26;12.40;99.90
5246;DHT22;54412;51.206;6.888;2022-10-04T01:44:44;12.20;99.90
5246;DHT22;54412;51.206;6.888;2022-10-04T01:47:25;12.30;99.90
5246;DHT22;54412;51.206;6.888;2022-10-04T01:50:01;12.30;99.90
5246;DHT22;54412;51.206;6.888;2022-10-04T01:52:41;12.30;99.90
5246;DHT22;54412;51.206;6.888;2022-10-04T01:55:14;12.20;99.90
5246;DHT22;54412;51.206;6.888;2022-10-04T01:57:51;12.10;99.90
5246;DHT22;54412;51.206;6.888;2022-10-04T02:00:23;12.20;99.90
5246;DHT22;54412;51.206;6.888;2022-10-04T02:02:59;12.30;99.90
5246;DHT22;54412;51.206;6.888;2022-10-04T02:05:46;12.30;99.90
5246;DHT22;54412;51.206;6.888;2022-10-04T02:08:17;12.20;99.90
5246;DHT22;54412;51.206;6.888;2022-10-04T02:10:51;12.20;99.90
5246;DHT22;54412;51.206;6.888;2022-10-04T02:13:20;12.30;99.90
5246;DHT22;54412;51.206;6.888;2022-10-04T02:15:48;12.20;99.90
5246;DHT22;54412;51.206;6.888;2022-10-04T02:18:19;12.10;99.90
5246;DHT22;54412;51.206;6.888;2022-10-04T02:20:48;12.00;99.90
5246;DHT22;54412;51.206;6.888;2022-10-04T02:23:17;12.10;99.90
5246;DHT22;54412;51.206;6.888;2022-10-04T02:25:45;12.10;99.90
5246;DHT22;54412;51.206;6.888;2022-10-04T02:28:12;12.10;99.90
5246;DHT22;54412;51.206;6.888;2022-10-04T02:30:48;12.10;99.90
5246;DHT22;54412;51.206;6.888;2022-10-04T02:33:43;12.10;99.90
5246;DHT22;54412;51.206;6.888;2022-10-04T02:36:11;12.00;99.90
5246;DHT22;54412;51.206;6.888;2022-10-04T02:41:42;12.00;99.90
5246;DHT22;54412;51.206;6.888;2022-10-04T02:44:29;12.00;99.90
5246;DHT22;54412;51.206;6.888;2022-10-04T02:47:29;12.00;99.90
5246;DHT22;54412;51.206;6.888;2022-10-04T02:50:04;12.00;99.90
5246;DHT22;54412;51.206;6.888;2022-10-04T02:52:46;12.00;99.90
5246;DHT22;54412;51.206;6.888;2022-10-04T02:55:24;12.00;99.90
5246;DHT22;54412;51.206;6.888;2022-10-04T02:57:53;12.00;99.90
5246;DHT22;54412;51.206;6.888;2022-10-04T03:00:30;12.00;99.90
5246;DHT22;54412;51.206;6.888;2022-10-04T03:05:44;11.90;99.90
5246;DHT22;54412;51.206;6.888;2022-10-04T03:08:20;11.80;99.90
5246;DHT22;54412;51.206;6.888;2022-10-04T03:10:46;11.80;99.90
5246;DHT22;54412;51.206;6.888;2022-10-04T03:13:14;11.70;99.90
5246;DHT22;54412;51.206;6.888;2022-10-04T03:15:42;11.70;99.90
5246;DHT22;54412;51.206;6.888;2022-10-04T03:18:08;11.70;99.90
5246;DHT22;54412;51.206;6.888;2022-10-04T03:20:36;11.90;99.90
5246;DHT22;54412;51.206;6.888;2022-10-04T03:23:05;11.90;99.90
5246;DHT22;54412;51.206;6.888;2022-10-04T03:25:50;12.00;99.90
5246;DHT22;54412;51.206;6.888;2022-10-04T03:28:19;12.00;99.90
5246;DHT22;54412;51.206;6.888;2022-10-04T03:30:46;12.10;99.90
5246;DHT22;54412;51.206;6.888;2022-10-04T03:33:19;12.00;99.90
5246;DHT22;54412;51.206;6.888;2022-10-04T03:35:50;11.90;99.90
5246;DHT22;54412;51.206;6.888;2022-10-04T03:38:18;11.80;99.90
5246;DHT22;54412;51.206;6.888;2022-10-04T03:40:54;11.80;99.90
5246;DHT22;54412;51.206;6.888;2022-10-04T03:43:28;11.80;99.90
5246;DHT22;54412;51.206;6.888;2022-10-04T03:45:56;11.80;99.90
5246;DHT22;54412;51.206;6.888;2022-10-04T03:48:34;11.80;99.90
5246;DHT22;54412;51.206;6.888;2022-10-04T03:51:12;11.80;99.90
5246;DHT22;54412;51.206;6.888;2022-10-04T03:53:43;11.90;99.90
5246;DHT22;54412;51.206;6.888;2022-10-04T03:56:32;11.90;99.90
5246;DHT22;54412;51.206;6.888;2022-10-04T03:59:03;11.90;99.90
5246;DHT22;54412;51.206;6.888;2022-10-04T04:01:39;11.80;99.90
5246;DHT22;54412;51.206;6.888;2022-10-04T04:09:44;11.80;99.90
5246;DHT22;54412;51.206;6.888;2022-10-04T04:12:57;11.80;99.90
5246;DHT22;54412;51.206;6.888;2022-10-04T04:15:30;11.80;99.90
5246;DHT22;54412;51.206;6.888;2022-10-04T04:18:03;11.80;99.90
5246;DHT22;54412;51.206;6.888;2022-10-04T04:20:34;11.80;99.90
5246;DHT22;54412;51.206;6.888;2022-10-04T04:25:42;11.70;99.90
5246;DHT22;54412;51.206;6.888;2022-10-04T04:34:24;11.80;99.90
5246;DHT22;54412;51.206;6.888;2022-10-04T04:37:02;11.80;99.90
5246;DHT22;54412;51.206;6.888;2022-10-04T04:39:31;11.70;99.90
5246;DHT22;54412;51.206;6.888;2022-10-04T04:42:17;11.70;99.90
5246;DHT22;54412;51.206;6.888;2022-10-04T04:47:31;11.70;99.90
5246;DHT22;54412;51.206;6.888;2022-10-04T04:50:10;11.70;99.90
5246;DHT22;54412;51.206;6.888;2022-10-04T04:52:40;11.70;99.90
5246;DHT22;54412;51.206;6.888;2022-10-04T04:58:05;11.70;99.90
5246;DHT22;54412;51.206;6.888;2022-10-04T05:00:37;11.70;99.90
5246;DHT22;54412;51.206;6.888;2022-10-04T05:03:16;11.60;99.90
5246;DHT22;54412;51.206;6.888;2022-10-04T05:05:45;11.40;99.90
5246;DHT22;54412;51.206;6.888;2022-10-04T05:08:13;11.50;99.90
5246;DHT22;54412;51.206;6.888;2022-10-04T05:11:12;11.40;99.90
5246;DHT22;54412;51.206;6.888;2022-10-04T05:13:49;11.50;99.90
5246;DHT22;54412;51.206;6.888;2022-10-04T05:19:19;11.50;99.90
5246;DHT22;54412;51.206;6.888;2022-10-04T05:21:51;11.50;99.90
5246;DHT22;54412;51.206;6.888;2022-10-04T05:27:29;11.50;99.90
5246;DHT22;54412;51.206;6.888;2022-10-04T05:30:22;11.50;99.90
5246;DHT22;54412;51.206;6.888;2022-10-04T05:33:06;11.50;99.90
5246;DHT22;54412;51.206;6.888;2022-10-04T05:36:09;11.60;99.90
5246;DHT22;54412;51.206;6.888;2022-10-04T05:38:55;11.60;99.90
5246;DHT22;54412;51.206;6.888;2022-10-04T05:41:31;11.60;99.90
5246;DHT22;54412;51.206;6.888;2022-10-04T05:44:25;11.50;99.90
5246;DHT22;54412;51.206;6.888;2022-10-04T05:47:05;11.40;99.90
5246;DHT22;54412;51.206;6.888;2022-10-04T05:49:42;11.50;99.90
5246;DHT22;54412;51.206;6.888;2022-10-04T05:52:15;11.30;99.90
5246;DHT22;54412;51.206;6.888;2022-10-04T06:01:01;11.40;99.90
5246;DHT22;54412;51.206;6.888;2022-10-04T06:03:54;11.40;99.90
5246;DHT22;54412;51.206;6.888;2022-10-04T06:21:26;11.30;99.90
5246;DHT22;54412;51.206;6.888;2022-10-04T06:23:58;11.30;99.90
5246;DHT22;54412;51.206;6.888;2022-10-04T06:26:45;11.20;99.90
5246;DHT22;54412;51.206;6.888;2022-10-04T06:29:24;11.30;99.90
5246;DHT22;54412;51.206;6.888;2022-10-04T06:37:47;11.40;99.90
5246;DHT22;54412;51.206;6.888;2022-10-04T06:58:12;11.30;99.90
5246;DHT22;54412;51.206;6.888;2022-10-04T07:01:04;11.20;99.90
5246;DHT22;54412;51.206;6.888;2022-10-04T07:06:26;11.40;99.90
5246;DHT22;54412;51.206;6.888;2022-10-04T07:08:58;11.30;99.90
5246;DHT22;54412;51.206;6.888;2022-10-04T07:12:05;11.50;99.90
5246;DHT22;54412;51.206;6.888;2022-10-04T07:14:44;11.60;99.90
5246;DHT22;54412;51.206;6.888;2022-10-04T07:17:18;11.70;99.90
5246;DHT22;54412;51.206;6.888;2022-10-04T07:19:52;11.70;99.90
5246;DHT22;54412;51.206;6.888;2022-10-04T07:22:29;11.70;99.90
5246;DHT22;54412;51.206;6.888;2022-10-04T07:31:03;12.00;99.90
5246;DHT22;54412;51.206;6.888;2022-10-04T07:33:43;12.00;99.90
5246;DHT22;54412;51.206;6.888;2022-10-04T07:36:21;12.00;99.90
5246;DHT22;54412;51.206;6.888;2022-10-04T07:39:16;12.00;99.90
5246;DHT22;54412;51.206;6.888;2022-10-04T07:41:54;12.10;99.90
5246;DHT22;54412;51.206;6.888;2022-10-04T07:44:36;12.10;99.90
5246;DHT22;54412;51.206;6.888;2022-10-04T07:47:20;11.80;99.90
5246;DHT22;54412;51.206;6.888;2022-10-04T07:49:50;11.70;99.90
5246;DHT22;54412;51.206;6.888;2022-10-04T07:58:24;12.10;99.90
5246;DHT22;54412;51.206;6.888;2022-10-04T08:01:41;12.10;99.90
5246;DHT22;54412;51.206;6.888;2022-10-04T08:07:01;12.40;99.90
5246;DHT22;54412;51.206;6.888;2022-10-04T08:09:41;12.30;99.90
5246;DHT22;54412;51.206;6.888;2022-10-04T08:12:26;12.10;99.90
5246;DHT22;54412;51.206;6.888;2022-10-04T08:15:28;12.10;99.90
5246;DHT22;54412;51.206;6.888;2022-10-04T08:21:07;12.40;99.90
5246;DHT22;54412;51.206;6.888;2022-10-04T08:24:06;12.40;99.90
5246;DHT22;54412;51.206;6.888;2022-10-04T08:27:00;12.50;99.90
5246;DHT22;54412;51.206;6.888;2022-10-04T08:33:07;12.30;99.90
5246;DHT22;54412;51.206;6.888;2022-10-04T08:56:17;14.20;99.90
5246;DHT22;54412;51.206;6.888;2022-10-04T08:59:23;14.20;99.90
5246;DHT22;54412;51.206;6.888;2022-10-04T09:11:27;14.40;99.90
5246;DHT22;54412;51.206;6.888;2022-10-04T09:35:09;15.00;99.90
5246;DHT22;54412;51.206;6.888;2022-10-04T09:50:46;16.50;99.90
5246;DHT22;54412;51.206;6.888;2022-10-04T09:53:54;16.90;99.90
5246;DHT22;54412;51.206;6.888;2022-10-04T10:05:27;17.30;99.90
5246;DHT22;54412;51.206;6.888;2022-10-04T10:08:17;17.20;99.90
5246;DHT22;54412;51.206;6.888;2022-10-04T10:17:46;17.20;99.90
5246;DHT22;54412;51.206;6.888;2022-10-04T10:32:32;18.10;99.90
5246;DHT22;54412;51.206;6.888;2022-10-04T10:35:27;18.40;99.90
5246;DHT22;54412;51.206;6.888;2022-10-04T10:57:04;18.70;99.90
5246;DHT22;54412;51.206;6.888;2022-10-04T11:00:01;18.60;99.90
5246;DHT22;54412;51.206;6.888;2022-10-04T11:02:41;18.70;99.90
5246;DHT22;54412;51.206;6.888;2022-10-04T11:05:42;18.80;99.90
5246;DHT22;54412;51.206;6.888;2022-10-04T11:11:43;19.40;99.90
5246;DHT22;54412;51.206;6.888;2022-10-04T11:17:36;19.40;99.90
5246;DHT22;54412;51.206;6.888;2022-10-04T11:47:23;20.70;99.90
5246;DHT22;54412;51.206;6.888;2022-10-04T11:49:57;21.40;99.90
5246;DHT22;54412;51.206;6.888;2022-10-04T11:55:41;20.80;99.90
5246;DHT22;54412;51.206;6.888;2022-10-04T11:58:56;20.40;99.90
5246;DHT22;54412;51.206;6.888;2022-10-04T12:07:37;20.70;99.90
5246;DHT22;54412;51.206;6.888;2022-10-04T12:10:19;20.50;99.90
5246;DHT22;54412;51.206;6.888;2022-10-04T12:12:58;20.70;99.90
5246;DHT22;54412;51.206;6.888;2022-10-04T12:19:08;20.90;99.90
5246;DHT22;54412;51.206;6.888;2022-10-04T12:28:12;21.50;99.90
5246;DHT22;54412;51.206;6.888;2022-10-04T12:31:11;21.20;99.90
5246;DHT22;54412;51.206;6.888;2022-10-04T12:45:51;21.40;99.90
5246;DHT22;54412;51.206;6.888;2022-10-04T12:49:00;21.30;99.90
5246;DHT22;54412;51.206;6.888;2022-10-04T12:54:38;21.40;99.90
5246;DHT22;54412;51.206;6.888;2022-10-04T12:57:34;21.50;99.90
5246;DHT22;54412;51.206;6.888;2022-10-04T13:03:22;21.90;99.90
5246;DHT22;54412;51.206;6.888;2022-10-04T13:06:22;22.20;99.90
5246;DHT22;54412;51.206;6.888;2022-10-04T13:14:51;22.50;99.90
5246;DHT22;54412;51.206;6.888;2022-10-04T13:17:54;21.90;99.90
5246;DHT22;54412;51.206;6.888;2022-10-04T13:31:55;22.00;99.90
5246;DHT22;54412;51.206;6.888;2022-10-04T13:46:54;22.10;99.90
5246;DHT22;54412;51.206;6.888;2022-10-04T13:52:19;21.90;99.90
5246;DHT22;54412;51.206;6.888;2022-10-04T13:55:34;22.60;99.90
5246;DHT22;54412;51.206;6.888;2022-10-04T13:58:47;22.30;99.90
5246;DHT22;54412;51.206;6.888;2022-10-04T14:05:21;22.00;99.90
5246;DHT22;54412;51.206;6.888;2022-10-04T14:16:26;21.30;99.90
5246;DHT22;54412;51.206;6.888;2022-10-04T14:22:49;21.50;99.90
5246;DHT22;54412;51.206;6.888;2022-10-04T14:29:12;21.70;99.90
5246;DHT22;54412;51.206;6.888;2022-10-04T14:35:02;21.60;99.90
5246;DHT22;54412;51.206;6.888;2022-10-04T14:41:09;21.10;99.90
5246;DHT22;54412;51.206;6.888;2022-10-04T15:01:26;20.50;99.90
5246;DHT22;54412;51.206;6.888;2022-10-04T15:04:07;20.30;99.90
5246;DHT22;54412;51.206;6.888;2022-10-04T15:12:39;20.30;99.90
5246;DHT22;54412;51.206;6.888;2022-10-04T15:18:23;20.40;99.90
5246;DHT22;54412;51.206;6.888;2022-10-04T15:21:09;20.30;99.90
5246;DHT22;54412;51.206;6.888;2022-10-04T15:23:59;20.20;99.90
5246;DHT22;54412;51.206;6.888;2022-10-04T15:30:11;20.00;99.90
5246;DHT22;54412;51.206;6.888;2022-10-04T15:32:52;19.80;99.90
5246;DHT22;54412;51.206;6.888;2022-10-04T15:35:37;19.80;99.90
5246;DHT22;54412;51.206;6.888;2022-10-04T15:41:46;19.70;99.90
5246;DHT22;54412;51.206;6.888;2022-10-04T15:47:08;19.60;99.90
5246;DHT22;54412;51.206;6.888;2022-10-04T15:53:37;19.50;99.90
5246;DHT22;54412;51.206;6.888;2022-10-04T16:02:16;19.50;99.90
5246;DHT22;54412;51.206;6.888;2022-10-04T16:07:53;19.50;99.90
5246;DHT22;54412;51.206;6.888;2022-10-04T16:11:01;19.40;99.90
5246;DHT22;54412;51.206;6.888;2022-10-04T16:19:03;19.10;99.90
5246;DHT22;54412;51.206;6.888;2022-10-04T16:30:31;18.80;99.90
5246;DHT22;54412;51.206;6.888;2022-10-04T16:33:28;18.70;99.90
5246;DHT22;54412;51.206;6.888;2022-10-04T16:36:15;18.60;99.90
5246;DHT22;54412;51.206;6.888;2022-10-04T16:40:46;18.50;99.90
5246;DHT22;54412;51.206;6.888;2022-10-04T16:47:26;18.40;99.90
5246;DHT22;54412;51.206;6.888;2022-10-04T17:50:05;16.50;99.90
5246;DHT22;54412;51.206;6.888;2022-10-04T18:09:19;16.20;99.90
5246;DHT22;54412;51.206;6.888;2022-10-04T22:34:51;13.90;99.90
5246;DHT22;54412;51.206;6.888;2022-10-04T22:37:24;13.90;99.90
5246;DHT22;54412;51.206;6.888;2022-10-04T22:39:51;13.90;99.90
5246;DHT22;54412;51.206;6.888;2022-10-04T22:42:18;13.80;99.90
5246;DHT22;54412;51.206;6.888;2022-10-04T22:44:45;13.70;99.90
5246;DHT22;54412;51.206;6.888;2022-10-04T22:47:12;13.70;99.90
5246;DHT22;54412;51.206;6.888;2022-10-04T22:49:45;13.80;99.90
5246;DHT22;54412;51.206;6.888;2022-10-04T22:52:18;13.90;99.90
5246;DHT22;54412;51.206;6.888;2022-10-04T22:54:48;13.80;99.90
5246;DHT22;54412;51.206;6.888;2022-10-04T22:57:17;13.80;99.90
5246;DHT22;54412;51.206;6.888;2022-10-04T22:59:47;13.80;99.90
5246;DHT22;54412;51.206;6.888;2022-10-04T23:02:22;13.80;99.90
5246;DHT22;54412;51.206;6.888;2022-10-04T23:05:08;13.90;99.90
5246;DHT22;54412;51.206;6.888;2022-10-04T23:07:37;13.80;99.90
5246;DHT22;54412;51.206;6.888;2022-10-04T23:10:03;13.80;99.90
5246;DHT22;54412;51.206;6.888;2022-10-04T23:12:30;13.80;99.90
5246;DHT22;54412;51.206;6.888;2022-10-04T23:14:55;13.70;99.90
5246;DHT22;54412;51.206;6.888;2022-10-04T23:17:30;13.70;99.90
5246;DHT22;54412;51.206;6.888;2022-10-04T23:20:10;13.70;99.90
5246;DHT22;54412;51.206;6.888;2022-10-04T23:22:38;13.70;99.90
5246;DHT22;54412;51.206;6.888;2022-10-04T23:27:42;13.60;99.90
5246;DHT22;54412;51.206;6.888;2022-10-04T23:30:14;13.60;99.90
5246;DHT22;54412;51.206;6.888;2022-10-04T23:32:51;13.60;99.90
5246;DHT22;54412;51.206;6.888;2022-10-04T23:35:23;13.60;99.90
5246;DHT22;54412;51.206;6.888;2022-10-04T23:37:50;13.50;99.90
5246;DHT22;54412;51.206;6.888;2022-10-04T23:40:20;13.60;99.90
5246;DHT22;54412;51.206;6.888;2022-10-04T23:42:49;13.50;99.90
5246;DHT22;54412;51.206;6.888;2022-10-04T23:45:21;13.60;99.90
5246;DHT22;54412;51.206;6.888;2022-10-04T23:47:52;13.60;99.90
5246;DHT22;54412;51.206;6.888;2022-10-04T23:50:32;13.50;99.90
5246;DHT22;54412;51.206;6.888;2022-10-04T23:53:02;13.40;99.90
5246;DHT22;54412;51.206;6.888;2022-10-04T23:55:41;13.40;99.90
5246;DHT22;54412;51.206;6.888;2022-10-04T23:58:23;13.30;99.90
